Time;durP1;ratioP1;P1;durP2;ratioP2;P2;SDS_P1;SDS_P2;PMS_P1;PMS_P2;Temp;Humidity;BMP_temperature;BMP_pressure;BME280_temperature;BME280_humidity;BME280_pressure;Samples;Min_cycle;Max_cycle;Signal;HPM_P1;HPM_P2
2022/12/07 00:01:17;;;;;;;1999.90;999.90;;;1.80;99.90;;;;;;5075203;28;20036;-77
2022/12/07 00:03:44;;;;;;;1999.90;999.90;;;1.80;99.90;;;;;;5074863;28;20071;-75
2022/12/07 00:06:11;;;;;;;1999.90;999.90;;;1.70;99.90;;;;;;5075010;28;20024;-75
2022/12/07 00:08:37;;;;;;;1999.90;999.90;;;1.70;99.90;;;;;;5074125;28;20395;-77
2022/12/07 00:11:06;;;;;;;1999.90;999.90;;;1.80;99.90;;;;;;5074923;28;20052;-77
2022/12/07 00:13:33;;;;;;;1999.90;999.90;;;1.70;99.90;;;;;;5073570;28;20024;-75
2022/12/07 00:16:06;;;;;;;1999.90;999.90;;;1.70;99.90;;;;;;5073852;28;20024;-76
2022/12/07 00:18:32;;;;;;;1999.90;999.90;;;1.70;99.90;;;;;;5069900;28;20021;-77
2022/12/07 00:21:05;;;;;;;1999.90;999.90;;;1.60;99.90;;;;;;5069083;28;20407;-74
2022/12/07 00:23:32;;;;;;;1999.90;999.90;;;1.60;99.90;;;;;;5070270;28;20025;-77
2022/12/07 00:26:07;;;;;;;1999.90;999.90;;;1.60;99.90;;;;;;5073113;28;20033;-75
2022/12/07 00:28:33;;;;;;;1999.90;999.90;;;1.60;99.90;;;;;;5073927;28;20070;-77
2022/12/07 00:31:20;;;;;;;1999.90;999.90;;;1.50;99.90;;;;;;5075001;28;20016;-77
2022/12/07 00:33:47;;;;;;;1999.90;999.90;;;1.50;99.90;;;;;;5074993;28;20103;-77
2022/12/07 00:36:16;;;;;;;1999.90;999.90;;;1.50;99.90;;;;;;5073023;28;20039;-77
2022/12/07 00:38:42;;;;;;;1999.90;999.90;;;1.50;99.90;;;;;;5073544;28;20550;-77
2022/12/07 00:41:12;;;;;;;1999.90;999.90;;;1.40;99.90;;;;;;5073370;28;20105;-77
2022/12/07 00:43:37;;;;;;;1999.90;999.90;;;1.40;99.90;;;;;;5072936;28;20162;-75
2022/12/07 00:46:03;;;;;;;1999.90;999.90;;;1.40;99.90;;;;;;5092190;28;20051;-77
2022/12/07 00:48:29;;;;;;;1999.90;999.90;;;1.40;99.90;;;;;;5127361;27;20021;-77
2022/12/07 00:50:55;;;;;;;1999.90;999.90;;;1.40;99.90;;;;;;5094918;28;20099;-77
2022/12/07 00:53:22;;;;;;;1999.90;999.90;;;1.40;99.90;;;;;;5094760;28;20107;-77
2022/12/07 00:55:48;;;;;;;1999.90;999.90;;;1.40;99.90;;;;;;5093122;28;20031;-77
2022/12/07 00:58:14;;;;;;;1999.90;999.90;;;1.40;99.90;;;;;;5094676;28;20020;-77
2022/12/07 01:00:42;;;;;;;1999.90;999.90;;;1.30;99.90;;;;;;5093385;28;20398;-78
2022/12/07 01:03:10;;;;;;;1999.90;999.90;;;1.30;99.90;;;;;;5087252;28;20017;-77
2022/12/07 01:05:36;;;;;;;1999.90;999.90;;;1.30;99.90;;;;;;5072762;28;20036;-77
2022/12/07 01:08:02;;;;;;;1999.90;999.90;;;1.30;99.90;;;;;;5074332;28;20527;-77
2022/12/07 01:10:30;;;;;;;1999.90;999.90;;;1.30;99.90;;;;;;5072554;28;20017;-77
2022/12/07 01:12:55;;;;;;;1999.90;999.90;;;1.20;99.90;;;;;;5072981;28;20423;-77
2022/12/07 01:15:21;;;;;;;1999.90;999.90;;;1.30;99.90;;;;;;5073143;28;20023;-77
2022/12/07 01:17:47;;;;;;;1999.90;999.90;;;1.20;99.90;;;;;;5071291;28;20036;-77
2022/12/07 01:20:13;;;;;;;1999.90;999.90;;;1.20;99.90;;;;;;5070994;28;20487;-77
2022/12/07 01:22:40;;;;;;;1999.90;999.90;;;1.20;99.90;;;;;;5069473;28;20500;-77
2022/12/07 01:25:07;;;;;;;1999.90;999.90;;;1.20;99.90;;;;;;5072326;28;20033;-77
2022/12/07 01:27:34;;;;;;;1999.90;999.90;;;1.30;99.90;;;;;;5072211;28;20032;-77
2022/12/07 01:30:00;;;;;;;1999.90;999.90;;;1.40;99.90;;;;;;5071406;28;20021;-77
2022/12/07 01:32:26;;;;;;;1999.90;999.90;;;1.30;99.90;;;;;;5073797;28;20416;-77
2022/12/07 01:34:52;;;;;;;1999.90;999.90;;;1.30;99.90;;;;;;5071923;28;20021;-77
2022/12/07 01:37:18;;;;;;;1999.90;999.90;;;1.40;99.90;;;;;;5072136;28;20119;-76
2022/12/07 01:39:44;;;;;;;1999.90;999.90;;;1.30;99.90;;;;;;5071948;28;20036;-74
2022/12/07 01:42:12;;;;;;;1999.90;999.90;;;1.40;99.90;;;;;;5073044;28;20036;-77
2022/12/07 01:45:16;;;;;;;1999.90;999.90;;;1.30;99.90;;;;;;5078563;28;20102;-76
2022/12/07 01:47:44;;;;;;;1999.90;999.90;;;1.30;99.90;;;;;;5092421;28;20539;-77
2022/12/07 01:50:10;;;;;;;1999.90;999.90;;;1.40;99.90;;;;;;5092091;28;20025;-75
2022/12/07 01:52:37;;;;;;;1999.90;999.90;;;1.40;99.90;;;;;;5093155;28;20035;-77
2022/12/07 01:55:07;;;;;;;1999.90;999.90;;;1.50;99.90;;;;;;5093533;28;20035;-75
2022/12/07 01:57:36;;;;;;;1999.90;999.90;;;1.50;99.90;;;;;;5093747;28;20442;-77
2022/12/07 02:00:03;;;;;;;1999.90;999.90;;;1.60;99.90;;;;;;5091906;28;20020;-76
2022/12/07 02:02:54;;;;;;;1999.90;999.90;;;1.70;99.90;;;;;;5090067;28;20487;-77
2022/12/07 02:05:20;;;;;;;1999.90;999.90;;;1.70;99.90;;;;;;5070998;28;20112;-77
2022/12/07 02:07:47;;;;;;;1999.90;999.90;;;1.70;99.90;;;;;;5071702;28;20056;-77
2022/12/07 02:10:27;;;;;;;1999.90;999.90;;;1.80;99.90;;;;;;5071603;28;20016;-77
2022/12/07 02:13:00;;;;;;;1999.90;999.90;;;1.90;99.90;;;;;;5071799;28;20024;-77
2022/12/07 02:15:34;;;;;;;1999.90;999.90;;;2.10;99.90;;;;;;5071390;28;20025;-77
2022/12/07 02:18:30;;;;;;;1999.90;999.90;;;2.20;99.90;;;;;;5068039;28;20033;-77
2022/12/07 02:21:18;;;;;;;1999.90;999.90;;;2.20;99.90;;;;;;5050695;28;20538;-77
2022/12/07 02:24:06;;;;;;;1999.90;999.90;;;2.30;99.90;;;;;;5063425;28;20391;-76
2022/12/07 02:27:10;;;;;;;1999.90;999.90;;;2.40;99.90;;;;;;5072444;28;20051;-77
2022/12/07 02:29:44;;;;;;;1999.90;999.90;;;2.40;99.90;;;;;;5070549;28;20059;-75
2022/12/07 02:32:25;;;;;;;1999.90;999.90;;;2.40;99.90;;;;;;5071109;28;20487;-77
2022/12/07 02:35:07;;;;;;;1999.90;999.90;;;2.40;99.90;;;;;;5071543;28;20055;-77
2022/12/07 02:37:38;;;;;;;1999.90;999.90;;;2.30;99.90;;;;;;5070995;28;20027;-75
2022/12/07 02:40:26;;;;;;;1999.90;999.90;;;2.30;99.90;;;;;;5070861;28;20101;-77
2022/12/07 02:42:57;;;;;;;1999.90;999.90;;;2.30;99.90;;;;;;5071544;28;20029;-76
2022/12/07 02:45:27;;;;;;;1999.90;999.90;;;2.20;99.90;;;;;;5071366;28;20386;-77
2022/12/07 02:47:58;;;;;;;1999.90;999.90;;;2.20;99.90;;;;;;5072152;28;20484;-77
2022/12/07 02:50:24;;;;;;;1999.90;999.90;;;2.20;99.90;;;;;;5070988;28;20021;-75
2022/12/07 02:52:50;;;;;;;1999.90;999.90;;;2.20;99.90;;;;;;5071379;28;20031;-77
2022/12/07 02:55:19;;;;;;;1999.90;999.90;;;2.10;99.90;;;;;;5071026;28;20028;-76
2022/12/07 02:58:18;;;;;;;1999.90;999.90;;;2.00;99.90;;;;;;5071217;28;20074;-76
2022/12/07 03:01:06;;;;;;;1999.90;999.90;;;2.00;99.90;;;;;;5071224;28;20033;-75
2022/12/07 03:03:37;;;;;;;1999.90;999.90;;;1.90;99.90;;;;;;5072109;28;20085;-75
2022/12/07 03:06:30;;;;;;;1999.90;999.90;;;1.90;99.90;;;;;;5070970;28;20377;-76
2022/12/07 03:09:11;;;;;;;1999.90;999.90;;;1.90;99.90;;;;;;5057970;28;20020;-76
2022/12/07 03:12:00;;;;;;;1999.90;999.90;;;1.90;99.90;;;;;;5071776;28;20490;-75
2022/12/07 03:14:34;;;;;;;1999.90;999.90;;;2.00;99.90;;;;;;5072167;28;20025;-77
2022/12/07 03:17:13;;;;;;;1999.90;999.90;;;2.00;99.90;;;;;;5068017;28;20096;-77
2022/12/07 03:19:41;;;;;;;1999.90;999.90;;;2.10;99.90;;;;;;5085711;28;20017;-76
2022/12/07 03:22:11;;;;;;;1999.90;999.90;;;2.10;99.90;;;;;;5070517;28;20033;-75
2022/12/07 03:24:42;;;;;;;1999.90;999.90;;;2.20;99.90;;;;;;5070485;28;20495;-74
2022/12/07 03:27:19;;;;;;;1999.90;999.90;;;2.30;99.90;;;;;;5071049;28;20108;-77
2022/12/07 03:30:17;;;;;;;1999.90;999.90;;;2.30;99.90;;;;;;5070942;28;20032;-77
2022/12/07 03:33:07;;;;;;;1999.90;999.90;;;2.40;99.90;;;;;;5082679;28;20032;-76
2022/12/07 03:35:48;;;;;;;1999.90;999.90;;;2.40;99.90;;;;;;5070740;28;20028;-76
2022/12/07 03:38:25;;;;;;;1999.90;999.90;;;2.50;99.90;;;;;;5071668;28;20024;-75
2022/12/07 03:41:04;;;;;;;1999.90;999.90;;;2.50;99.90;;;;;;5070246;28;20444;-75
2022/12/07 03:43:31;;;;;;;1999.90;999.90;;;2.70;99.90;;;;;;5070094;28;20020;-77
2022/12/07 03:46:09;;;;;;;1999.90;999.90;;;2.90;99.90;;;;;;5070713;28;20123;-77
2022/12/07 03:48:34;;;;;;;1999.90;999.90;;;3.00;99.90;;;;;;5070477;28;20153;-76
2022/12/07 03:51:13;;;;;;;1999.90;999.90;;;3.20;99.90;;;;;;5070610;28;20454;-77
2022/12/07 03:53:53;;;;;;;1999.90;999.90;;;3.20;99.90;;;;;;5070606;28;20035;-77
2022/12/07 03:56:21;;;;;;;1999.90;999.90;;;3.40;99.90;;;;;;5094927;28;20020;-76
2022/12/07 03:58:48;;;;;;;1999.90;999.90;;;3.30;99.90;;;;;;5071601;28;20613;-77
2022/12/07 04:01:13;;;;;;;1999.90;999.90;;;3.40;99.90;;;;;;5074224;28;20094;-77
2022/12/07 04:03:39;;;;;;;1999.90;999.90;;;3.50;99.90;;;;;;5074060;28;20044;-76
2022/12/07 04:06:05;;;;;;;1999.90;999.90;;;3.50;99.90;;;;;;5074182;28;20035;-77
2022/12/07 04:08:31;;;;;;;1999.90;999.90;;;3.50;99.90;;;;;;5075064;28;20078;-75
2022/12/07 04:10:56;;;;;;;1999.90;999.90;;;3.60;99.90;;;;;;5073966;28;20036;-77
2022/12/07 04:13:22;;;;;;;1999.90;999.90;;;3.80;99.90;;;;;;5073828;28;20112;-77
2022/12/07 04:15:48;;;;;;;1999.90;999.90;;;3.80;99.90;;;;;;5073150;28;20033;-77
2022/12/07 04:18:13;;;;;;;1999.90;999.90;;;3.90;99.90;;;;;;5070048;28;20029;-77
2022/12/07 04:20:39;;;;;;;1999.90;999.90;;;3.90;99.90;;;;;;5067374;28;20119;-77
2022/12/07 04:23:05;;;;;;;1999.90;999.90;;;3.90;99.90;;;;;;5073780;28;20028;-78
2022/12/07 04:25:30;;;;;;;1999.90;999.90;;;3.90;99.90;;;;;;5073462;28;20040;-77
2022/12/07 04:27:56;;;;;;;1999.90;999.90;;;4.00;99.90;;;;;;5075222;28;20452;-77
2022/12/07 04:30:22;;;;;;;1999.90;999.90;;;4.00;99.90;;;;;;5073780;28;20037;-77
2022/12/07 04:32:47;;;;;;;1999.90;999.90;;;4.00;99.90;;;;;;5074312;28;20448;-77
2022/12/07 04:35:13;;;;;;;1999.90;999.90;;;4.10;99.90;;;;;;5071293;28;20403;-76
2022/12/07 04:37:39;;;;;;;1999.90;999.90;;;4.10;99.90;;;;;;5073555;28;20461;-76
2022/12/07 04:40:10;;;;;;;1999.90;999.90;;;4.00;99.90;;;;;;5074079;28;20050;-76
2022/12/07 04:42:37;;;;;;;1999.90;999.90;;;4.10;99.90;;;;;;5074449;28;20028;-75
2022/12/07 04:45:03;;;;;;;1999.90;999.90;;;4.10;99.90;;;;;;5083758;28;20070;-77
2022/12/07 04:47:29;;;;;;;1999.90;999.90;;;4.10;99.90;;;;;;5094712;28;20391;-76
2022/12/07 04:49:54;;;;;;;1999.90;999.90;;;4.10;99.90;;;;;;5094501;28;20028;-77
2022/12/07 04:52:20;;;;;;;1999.90;999.90;;;4.10;99.90;;;;;;5093358;28;20483;-76
2022/12/07 04:54:46;;;;;;;1999.90;999.90;;;4.10;99.90;;;;;;5101568;27;20389;-76
2022/12/07 04:57:11;;;;;;;1999.90;999.90;;;4.20;99.90;;;;;;5054502;28;20512;-77
2022/12/07 04:59:37;;;;;;;1999.90;999.90;;;4.10;99.90;;;;;;5052470;28;20074;-76
2022/12/07 05:02:03;;;;;;;1999.90;999.90;;;4.20;99.90;;;;;;5054127;28;20025;-77
2022/12/07 05:04:28;;;;;;;1999.90;999.90;;;4.20;99.90;;;;;;5070260;28;20063;-76
2022/12/07 05:06:57;;;;;;;1999.90;999.90;;;4.20;99.90;;;;;;5073151;28;20024;-77
2022/12/07 05:09:23;;;;;;;1999.90;999.90;;;4.20;99.90;;;;;;5072358;28;20027;-76
2022/12/07 05:11:48;;;;;;;1999.90;999.90;;;4.20;99.90;;;;;;5072051;28;20495;-76
2022/12/07 05:14:19;;;;;;;1999.90;999.90;;;4.20;99.90;;;;;;5073321;28;20044;-78
2022/12/07 05:16:48;;;;;;;1999.90;999.90;;;4.30;99.90;;;;;;5072991;28;20028;-77
2022/12/07 05:19:14;;;;;;;1999.90;999.90;;;4.20;99.90;;;;;;5067415;28;20070;-77
2022/12/07 05:21:40;;;;;;;1999.90;999.90;;;4.20;99.90;;;;;;5072494;28;20487;-76
2022/12/07 05:24:07;;;;;;;1999.90;999.90;;;4.20;99.90;;;;;;5073410;28;20543;-77
2022/12/07 05:26:34;;;;;;;1999.90;999.90;;;4.20;99.90;;;;;;5073123;28;20051;-78
2022/12/07 05:28:59;;;;;;;1999.90;999.90;;;4.20;99.90;;;;;;5072197;28;20515;-77
2022/12/07 05:31:26;;;;;;;1999.90;999.90;;;4.30;99.90;;;;;;5071474;28;20115;-77
2022/12/07 05:33:52;;;;;;;1999.90;999.90;;;4.30;99.90;;;;;;5072464;28;20028;-76
2022/12/07 05:36:18;;;;;;;1999.90;999.90;;;4.30;99.90;;;;;;5073377;28;20032;-76
2022/12/07 05:38:44;;;;;;;1999.90;999.90;;;4.30;99.90;;;;;;5072473;28;20089;-75
2022/12/07 05:42:11;;;;;;;1999.90;999.90;;;4.30;99.90;;;;;;5071981;28;20036;-77
2022/12/07 05:43:59;;;;;;;1999.90;999.90;;;4.30;99.90;;;;;;5073331;28;20028;-77
2022/12/07 05:46:25;;;;;;;1999.90;999.90;;;4.30;99.90;;;;;;5093725;28;20581;-75
2022/12/07 05:48:51;;;;;;;1999.90;999.90;;;4.30;99.90;;;;;;5092546;28;20387;-76
2022/12/07 05:51:17;;;;;;;1999.90;999.90;;;4.30;99.90;;;;;;5093830;28;20028;-75
2022/12/07 05:53:42;;;;;;;1999.90;999.90;;;4.40;99.90;;;;;;5121065;27;20440;-75
2022/12/07 05:56:08;;;;;;;1999.90;999.90;;;4.30;99.90;;;;;;5070759;28;20025;-77
2022/12/07 06:01:18;;;;;;;1999.90;999.90;;;4.30;99.90;;;;;;5073277;28;20067;-76
2022/12/07 06:03:44;;;;;;;1999.90;999.90;;;4.30;99.90;;;;;;5071150;28;20044;-76
2022/12/07 06:06:10;;;;;;;1999.90;999.90;;;4.30;99.90;;;;;;5073096;28;20468;-76
2022/12/07 06:08:35;;;;;;;1999.90;999.90;;;4.30;99.90;;;;;;5072685;28;20054;-75
2022/12/07 06:13:45;;;;;;;1999.90;999.90;;;4.30;99.90;;;;;;5072704;28;20036;-77
2022/12/07 06:16:11;;;;;;;1999.90;999.90;;;4.30;99.90;;;;;;5071501;28;20024;-77
2022/12/07 06:18:36;;;;;;;1999.90;999.90;;;4.20;99.90;;;;;;5061263;28;20132;-75
2022/12/07 06:21:02;;;;;;;1999.90;999.90;;;4.00;99.90;;;;;;5084928;28;20455;-76
2022/12/07 06:23:28;;;;;;;1999.90;999.90;;;3.80;99.90;;;;;;5052241;28;20052;-75
2022/12/07 06:25:53;;;;;;;1999.90;999.90;;;3.70;99.90;;;;;;5084109;28;20017;-75
2022/12/07 06:28:19;;;;;;;1999.90;999.90;;;3.60;99.90;;;;;;5051016;28;20029;-77
2022/12/07 06:31:00;;;;;;;1999.90;999.90;;;3.50;99.90;;;;;;5052076;28;20013;-75
2022/12/07 06:33:26;;;;;;;1999.90;999.90;;;3.40;99.90;;;;;;5051843;28;20415;-75
2022/12/07 06:35:52;;;;;;;1999.90;999.90;;;3.40;99.90;;;;;;5058923;28;20017;-75
2022/12/07 06:38:18;;;;;;;1999.90;999.90;;;3.40;99.90;;;;;;5071127;28;20089;-77
2022/12/07 06:40:44;;;;;;;1999.90;999.90;;;3.40;99.90;;;;;;5074337;28;20044;-76
2022/12/07 06:43:12;;;;;;;1999.90;999.90;;;3.40;99.90;;;;;;5069391;28;20024;-76
2022/12/07 06:45:52;;;;;;;1999.90;999.90;;;3.20;99.90;;;;;;5070709;28;20093;-76
2022/12/07 06:48:32;;;;;;;1999.90;999.90;;;3.20;99.90;;;;;;5065975;28;20040;-76
2022/12/07 06:51:12;;;;;;;1999.90;999.90;;;3.10;99.90;;;;;;5066501;28;20119;-74
2022/12/07 06:53:43;;;;;;;1999.90;999.90;;;3.10;99.90;;;;;;5066437;28;20044;-75
2022/12/07 06:56:19;;;;;;;1999.90;999.90;;;3.10;99.90;;;;;;5062871;28;20060;-76
2022/12/07 06:59:02;;;;;;;1999.90;999.90;;;2.90;99.90;;;;;;5068201;28;20060;-76
2022/12/07 07:02:04;;;;;;;1999.90;999.90;;;3.00;99.90;;;;;;5068185;28;20032;-77
2022/12/07 07:04:36;;;;;;;1999.90;999.90;;;2.90;99.90;;;;;;5068400;28;20430;-77
2022/12/07 07:07:36;;;;;;;1999.90;999.90;;;2.80;99.90;;;;;;5067990;28;20085;-78
2022/12/07 07:10:39;;;;;;;1999.90;999.90;;;2.80;99.90;;;;;;5067009;28;20040;-77
2022/12/07 07:13:22;;;;;;;1999.90;999.90;;;2.70;99.90;;;;;;5077299;28;20028;-78
2022/12/07 07:15:57;;;;;;;1999.90;999.90;;;2.70;99.90;;;;;;5069245;28;20407;-76
2022/12/07 07:18:39;;;;;;;1999.90;999.90;;;2.60;99.90;;;;;;5067760;28;20024;-76
2022/12/07 07:21:36;;;;;;;1999.90;999.90;;;2.50;99.90;;;;;;5067867;28;20031;-78
2022/12/07 07:24:29;;;;;;;1999.90;999.90;;;2.30;99.90;;;;;;5073254;28;20034;-76
2022/12/07 07:27:11;;;;;;;1999.90;999.90;;;2.20;99.90;;;;;;5065962;28;20044;-77
2022/12/07 07:29:55;;;;;;;1999.90;999.90;;;2.20;99.90;;;;;;5066757;28;20033;-77
2022/12/07 07:32:21;;;;;;;1999.90;999.90;;;2.10;99.90;;;;;;5067892;28;20030;-76
2022/12/07 07:34:48;;;;;;;1999.90;999.90;;;2.10;99.90;;;;;;5070945;28;20459;-78
2022/12/07 07:37:26;;;;;;;1999.90;999.90;;;2.10;99.90;;;;;;5072390;28;20491;-78
2022/12/07 07:39:52;;;;;;;1999.90;999.90;;;2.10;99.90;;;;;;5074267;28;20039;-75
2022/12/07 07:42:28;;;;;;;1999.90;999.90;;;2.10;99.90;;;;;;5071568;28;20029;-75
2022/12/07 07:44:54;;;;;;;1999.90;999.90;;;2.10;99.90;;;;;;5080083;28;20020;-75
2022/12/07 07:47:22;;;;;;;1999.90;999.90;;;2.10;99.90;;;;;;5072076;28;20509;-78
2022/12/07 07:49:48;;;;;;;1999.90;999.90;;;2.10;99.90;;;;;;5072804;28;20160;-78
2022/12/07 07:52:16;;;;;;;1999.90;999.90;;;2.10;99.90;;;;;;5069996;28;20052;-77
2022/12/07 07:55:03;;;;;;;1999.90;999.90;;;2.10;99.90;;;;;;5068809;28;20444;-75
2022/12/07 07:57:39;;;;;;;1999.90;999.90;;;2.10;99.90;;;;;;5072618;28;20035;-75
2022/12/07 08:00:32;;;;;;;1999.90;999.90;;;2.20;99.90;;;;;;5064976;28;20035;-78
2022/12/07 08:03:21;;;;;;;1999.90;999.90;;;2.20;99.90;;;;;;5066758;28;20033;-77
2022/12/07 08:06:00;;;;;;;1999.90;999.90;;;2.20;99.90;;;;;;5089506;28;20050;-76
2022/12/07 08:08:26;;;;;;;1999.90;999.90;;;2.30;99.90;;;;;;5088324;28;20028;-76
2022/12/07 08:11:16;;;;;;;1999.90;999.90;;;2.40;99.90;;;;;;5068581;28;20460;-77
2022/12/07 08:13:51;;;;;;;1999.90;999.90;;;2.40;99.90;;;;;;5075446;28;20029;-75
2022/12/07 08:16:20;;;;;;;1999.90;999.90;;;2.50;99.90;;;;;;5058846;28;21828;-76
2022/12/07 08:18:56;;;;;;;1999.90;999.90;;;2.50;99.90;;;;;;5065147;28;20052;-77
2022/12/07 08:21:49;;;;;;;1999.90;999.90;;;2.60;99.90;;;;;;5061579;28;20051;-75
2022/12/07 08:24:25;;;;;;;1999.90;999.90;;;2.60;99.90;;;;;;5069106;28;20032;-77
2022/12/07 08:27:06;;;;;;;1999.90;999.90;;;2.70;99.90;;;;;;5072469;28;20556;-76
2022/12/07 08:29:47;;;;;;;1999.90;999.90;;;2.80;99.90;;;;;;5069019;28;20025;-77
2022/12/07 08:32:25;;;;;;;1999.90;999.90;;;2.80;99.90;;;;;;5071011;28;20033;-76
2022/12/07 08:34:52;;;;;;;1999.90;999.90;;;3.00;99.90;;;;;;5067680;28;20028;-77
2022/12/07 08:37:18;;;;;;;1999.90;999.90;;;3.50;99.90;;;;;;5069465;28;20395;-76
2022/12/07 08:39:43;;;;;;;1999.90;999.90;;;4.30;99.90;;;;;;5070777;28;20032;-76
2022/12/07 08:42:27;;;;;;;1999.90;999.90;;;4.40;99.90;;;;;;5071781;28;20023;-77
2022/12/07 08:45:25;;;;;;;1999.90;999.90;;;4.10;99.90;;;;;;5066194;28;20043;-77
2022/12/07 08:48:04;;;;;;;1999.90;999.90;;;4.10;99.90;;;;;;5069827;28;20039;-76
2022/12/07 08:51:10;;;;;;;1999.90;999.90;;;4.00;99.90;;;;;;5061655;28;20024;-76
2022/12/07 08:54:13;;;;;;;1999.90;999.90;;;3.90;99.90;;;;;;5063186;28;20052;-76
2022/12/07 08:57:16;;;;;;;1999.90;999.90;;;3.80;99.90;;;;;;5056515;28;20036;-75
2022/12/07 09:00:20;;;;;;;1999.90;999.90;;;3.80;99.90;;;;;;5070442;28;20035;-76
2022/12/07 09:03:17;;;;;;;1999.90;999.90;;;3.90;99.90;;;;;;5061975;28;20068;-76
2022/12/07 09:06:08;;;;;;;1999.90;999.90;;;3.90;99.90;;;;;;5015816;28;20148;-76
2022/12/07 09:08:57;;;;;;;1999.90;999.90;;;3.80;99.90;;;;;;5061805;28;20033;-77
2022/12/07 09:11:37;;;;;;;1999.90;999.90;;;3.80;99.90;;;;;;5029883;28;20021;-76
2022/12/07 09:14:23;;;;;;;1999.90;999.90;;;3.90;99.90;;;;;;5028059;28;20076;-76
2022/12/07 09:17:32;;;;;;;1999.90;999.90;;;4.00;99.90;;;;;;5027753;28;20037;-76
2022/12/07 09:20:18;;;;;;;1999.90;999.90;;;4.00;99.90;;;;;;5027170;28;20130;-77
2022/12/07 09:23:04;;;;;;;1999.90;999.90;;;4.10;99.90;;;;;;5032836;28;20042;-76
2022/12/07 09:26:00;;;;;;;1999.90;999.90;;;4.20;99.90;;;;;;5028310;28;20163;-76
2022/12/07 09:29:05;;;;;;;1999.90;999.90;;;4.20;99.90;;;;;;5040962;28;20135;-76
2022/12/07 09:31:40;;;;;;;1999.90;999.90;;;4.30;99.90;;;;;;5022910;28;20128;-76
2022/12/07 09:34:36;;;;;;;1999.90;999.90;;;4.40;99.90;;;;;;5028111;28;20043;-76
2022/12/07 09:37:42;;;;;;;1999.90;999.90;;;4.50;99.90;;;;;;5030074;28;20065;-76
2022/12/07 09:40:37;;;;;;;1999.90;999.90;;;4.60;99.90;;;;;;5028854;28;20073;-73
2022/12/07 09:43:34;;;;;;;1999.90;999.90;;;4.60;99.90;;;;;;5026896;28;20571;-75
2022/12/07 09:46:29;;;;;;;1999.90;999.90;;;4.70;99.90;;;;;;5038864;28;20036;-76
2022/12/07 09:49:27;;;;;;;1999.90;999.90;;;4.80;99.90;;;;;;5030752;28;20119;-76
2022/12/07 09:52:47;;;;;;;1999.90;999.90;;;5.00;99.90;;;;;;5027554;28;20116;-76
2022/12/07 09:55:46;;;;;;;1999.90;999.90;;;5.10;99.90;;;;;;5026180;28;20048;-77
2022/12/07 09:58:42;;;;;;;1999.90;999.90;;;5.10;99.90;;;;;;5028911;28;20758;-77
2022/12/07 10:01:38;;;;;;;1999.90;999.90;;;5.10;99.90;;;;;;5029248;28;20083;-76
2022/12/07 10:04:37;;;;;;;1999.90;999.90;;;5.30;99.90;;;;;;5043468;28;20041;-73
2022/12/07 10:07:40;;;;;;;1999.90;999.90;;;5.30;99.90;;;;;;5057034;28;20032;-73
2022/12/07 10:10:43;;;;;;;1999.90;999.90;;;5.30;99.90;;;;;;5098053;28;20047;-74
2022/12/07 10:13:37;;;;;;;1999.90;999.90;;;5.50;99.90;;;;;;5067859;28;20093;-74
2022/12/07 10:16:25;;;;;;;1999.90;999.90;;;5.60;99.90;;;;;;5067383;28;20040;-73
2022/12/07 10:19:38;;;;;;;1999.90;999.90;;;5.70;99.90;;;;;;5063854;28;20564;-73
2022/12/07 10:22:44;;;;;;;1999.90;999.90;;;5.80;99.90;;;;;;5064807;28;20064;-75
2022/12/07 10:25:45;;;;;;;1999.90;999.90;;;6.00;99.90;;;;;;5100051;28;20198;-74
2022/12/07 10:28:51;;;;;;;1999.90;999.90;;;6.30;99.90;;;;;;5063379;28;20028;-74
2022/12/07 10:31:35;;;;;;;1999.90;999.90;;;6.50;99.90;;;;;;5066253;28;20494;-73
2022/12/07 10:34:44;;;;;;;1999.90;999.90;;;6.70;99.90;;;;;;5058754;28;20037;-77
2022/12/07 10:37:12;;;;;;;1999.90;999.90;;;6.80;99.90;;;;;;5089413;28;20041;-75
2022/12/07 10:40:23;;;;;;;1999.90;999.90;;;6.90;99.90;;;;;;5059007;28;20036;-77
2022/12/07 10:43:01;;;;;;;1999.90;999.90;;;7.00;99.90;;;;;;5066212;28;20464;-77
2022/12/07 10:46:17;;;;;;;1999.90;999.90;;;7.00;99.90;;;;;;5053343;28;20035;-77
2022/12/07 10:49:33;;;;;;;1999.90;999.90;;;7.00;99.90;;;;;;5058293;28;20530;-75
2022/12/07 10:52:25;;;;;;;1999.90;999.90;;;6.90;99.90;;;;;;5047471;28;20131;-74
2022/12/07 10:55:27;;;;;;;1999.90;999.90;;;7.00;99.90;;;;;;5064541;28;20894;-74
2022/12/07 10:58:18;;;;;;;1999.90;999.90;;;7.00;99.90;;;;;;5064296;28;21384;-76
2022/12/07 11:01:31;;;;;;;1999.90;999.90;;;6.90;99.90;;;;;;5089693;28;20429;-76
2022/12/07 11:04:48;;;;;;;1999.90;999.90;;;6.80;99.90;;;;;;5067229;28;20040;-76
2022/12/07 11:07:19;;;;;;;1999.90;999.90;;;6.50;99.90;;;;;;5067318;28;20043;-77
2022/12/07 11:10:32;;;;;;;1999.90;999.90;;;6.50;99.90;;;;;;5061938;28;20036;-76
2022/12/07 11:13:40;;;;;;;1999.90;999.90;;;6.30;99.90;;;;;;5071658;28;20025;-76
2022/12/07 11:16:35;;;;;;;1999.90;999.90;;;6.10;99.90;;;;;;5064717;28;20136;-77
2022/12/07 11:19:24;;;;;;;1999.90;999.90;;;6.00;99.90;;;;;;5062692;28;20032;-77
2022/12/07 11:22:30;;;;;;;1999.90;999.90;;;5.90;99.90;;;;;;5058537;28;20048;-76
2022/12/07 11:25:17;;;;;;;1999.90;999.90;;;5.80;99.90;;;;;;5067007;28;20047;-76
2022/12/07 11:28:23;;;;;;;1999.90;999.90;;;5.90;99.90;;;;;;5061118;28;20033;-78
2022/12/07 11:31:11;;;;;;;1999.90;999.90;;;6.00;99.90;;;;;;5091458;28;20449;-77
2022/12/07 11:34:28;;;;;;;1999.90;999.90;;;6.10;99.90;;;;;;5064537;28;20039;-76
2022/12/07 11:37:13;;;;;;;1999.90;999.90;;;6.40;99.90;;;;;;5066411;28;20044;-78
2022/12/07 11:40:39;;;;;;;1999.90;999.90;;;6.60;99.90;;;;;;5064198;28;20086;-76
2022/12/07 11:43:34;;;;;;;1999.90;999.90;;;6.80;99.90;;;;;;5068696;28;20041;-78
2022/12/07 11:46:24;;;;;;;1999.90;999.90;;;6.90;99.90;;;;;;5066362;28;20475;-76
2022/12/07 11:49:09;;;;;;;1999.90;999.90;;;6.90;99.90;;;;;;5057620;28;20043;-78
2022/12/07 11:51:40;;;;;;;1999.90;999.90;;;6.90;99.90;;;;;;5064600;28;20507;-78
2022/12/07 11:54:35;;;;;;;1999.90;999.90;;;6.80;99.90;;;;;;5095851;28;20040;-78
2022/12/07 11:57:21;;;;;;;1999.90;999.90;;;7.00;99.90;;;;;;5068970;28;20762;-76
2022/12/07 12:00:27;;;;;;;1999.90;999.90;;;7.00;99.90;;;;;;5067045;28;20033;-74
2022/12/07 12:03:31;;;;;;;1999.90;999.90;;;7.10;99.90;;;;;;5068634;28;20047;-77
2022/12/07 12:06:31;;;;;;;1999.90;999.90;;;7.10;99.90;;;;;;5029386;28;20061;-77
2022/12/07 12:09:28;;;;;;;1999.90;999.90;;;7.10;99.90;;;;;;5031341;28;20044;-76
2022/12/07 12:12:17;;;;;;;1999.90;999.90;;;7.20;99.90;;;;;;5028764;28;20034;-75
2022/12/07 12:15:11;;;;;;;1999.90;999.90;;;7.20;99.90;;;;;;5023895;28;20088;-76
2022/12/07 12:17:39;;;;;;;1999.90;999.90;;;7.20;99.90;;;;;;5028140;28;20352;-76
2022/12/07 12:20:29;;;;;;;1999.90;999.90;;;7.40;99.90;;;;;;5028280;28;20029;-77
2022/12/07 12:23:12;;;;;;;1999.90;999.90;;;7.70;99.90;;;;;;5025116;28;20520;-78
2022/12/07 12:25:50;;;;;;;1999.90;999.90;;;8.20;99.90;;;;;;5026294;28;20091;-75
2022/12/07 12:28:25;;;;;;;1999.90;999.90;;;8.50;99.90;;;;;;5026830;28;20053;-77
2022/12/07 12:31:14;;;;;;;1999.90;999.90;;;8.50;99.90;;;;;;5027513;28;20068;-76
2022/12/07 12:33:51;;;;;;;1999.90;999.90;;;8.70;99.90;;;;;;5028758;28;20457;-78
2022/12/07 12:36:45;;;;;;;1999.90;999.90;;;9.00;99.90;;;;;;5027081;28;20065;-78
2022/12/07 12:39:20;;;;;;;1999.90;999.90;;;8.80;99.90;;;;;;5027514;28;20068;-76
2022/12/07 12:44:14;;;;;;;1999.90;999.90;;;8.70;99.90;;;;;;5030544;28;20091;-76
2022/12/07 12:47:02;;;;;;;1999.90;999.90;;;8.90;99.90;;;;;;5026760;28;20042;-77
2022/12/07 12:49:28;;;;;;;1999.90;999.90;;;9.10;99.90;;;;;;5024928;28;20029;-77
2022/12/07 12:52:03;;;;;;;1999.90;999.90;;;9.20;99.90;;;;;;5028097;28;20037;-76
2022/12/07 12:54:31;;;;;;;1999.90;999.90;;;9.20;99.90;;;;;;5050855;28;20034;-76
2022/12/07 12:57:09;;;;;;;1999.90;999.90;;;9.00;99.90;;;;;;5025932;28;20087;-79
2022/12/07 12:59:53;;;;;;;1999.90;999.90;;;8.60;99.90;;;;;;5032392;28;20408;-79
2022/12/07 13:02:35;;;;;;;1999.90;999.90;;;8.10;99.90;;;;;;5023790;28;20033;-76
2022/12/07 13:05:15;;;;;;;1999.90;999.90;;;7.90;99.90;;;;;;5044676;28;20423;-76
2022/12/07 13:07:47;;;;;;;1999.90;999.90;;;7.60;99.90;;;;;;5060282;28;20496;-77
2022/12/07 13:10:31;;;;;;;1999.90;999.90;;;7.40;99.90;;;;;;5061427;28;20502;-76
2022/12/07 13:13:11;;;;;;;1999.90;999.90;;;7.40;99.90;;;;;;5058831;28;20382;-75